Time;durP1;ratioP1;P1;durP2;ratioP2;P2;SDS_P1;SDS_P2;PMS_P1;PMS_P2;Temp;Humidity;BMP_temperature;BMP_pressure;BME280_temperature;BME280_humidity;BME280_pressure;Samples;Min_cycle;Max_cycle;Signal;HPM_P1;HPM_P2
2022/01/18 00:00:23;;;;;;;14.43;8.05;;;6.70;99.90;;;;;;5043152;28;20029;-86
2022/01/18 00:02:49;;;;;;;12.65;8.45;;;6.70;99.90;;;;;;5043460;28;20096;-86
2022/01/18 00:05:16;;;;;;;11.63;7.65;;;6.70;99.90;;;;;;5043709;28;20043;-86
2022/01/18 00:07:43;;;;;;;14.00;8.93;;;6.70;99.90;;;;;;5041178;28;20060;-86
2022/01/18 00:10:09;;;;;;;13.60;9.15;;;6.70;99.90;;;;;;5042658;28;20025;-85
2022/01/18 00:15:31;;;;;;;12.90;9.05;;;6.70;99.90;;;;;;5042532;28;20057;-86
2022/01/18 00:23:03;;;;;;;15.25;9.93;;;6.70;99.90;;;;;;5043570;28;20253;-86
2022/01/18 00:25:29;;;;;;;13.15;9.43;;;6.70;99.90;;;;;;5038498;28;20298;-86
2022/01/18 00:27:55;;;;;;;14.45;9.43;;;6.70;99.90;;;;;;5043924;28;20208;-86
2022/01/18 00:33:04;;;;;;;14.10;9.35;;;6.70;99.90;;;;;;5043718;28;20109;-86
2022/01/18 00:35:34;;;;;;;13.75;8.43;;;6.70;99.90;;;;;;5042698;28;20687;-86
2022/01/18 00:37:59;;;;;;;13.23;8.98;;;6.80;99.90;;;;;;5042829;28;20232;-85
2022/01/18 00:40:25;;;;;;;14.93;9.23;;;6.70;99.90;;;;;;5043234;28;20152;-86
2022/01/18 00:42:52;;;;;;;13.57;9.23;;;6.70;99.90;;;;;;5041388;28;20020;-86
2022/01/18 00:45:17;;;;;;;12.75;9.02;;;6.70;99.90;;;;;;5043017;28;20048;-86
2022/01/18 00:47:43;;;;;;;15.15;10.05;;;6.70;99.90;;;;;;5043217;28;20030;-86
2022/01/18 00:50:10;;;;;;;16.40;10.57;;;6.60;99.90;;;;;;5042413;28;20029;-86
2022/01/18 00:52:41;;;;;;;14.32;9.95;;;6.60;99.90;;;;;;5041959;28;20144;-86
2022/01/18 00:55:08;;;;;;;14.95;10.00;;;6.50;99.90;;;;;;5038250;28;20445;-86
2022/01/18 00:57:33;;;;;;;16.50;10.23;;;6.50;99.90;;;;;;5042235;28;20037;-86
2022/01/18 00:59:59;;;;;;;14.63;9.52;;;6.50;99.90;;;;;;5041177;28;20060;-86
2022/01/18 01:02:25;;;;;;;15.00;10.68;;;6.40;99.90;;;;;;5041371;28;20032;-86
2022/01/18 01:04:51;;;;;;;14.68;9.85;;;6.40;99.90;;;;;;5043091;28;20017;-86
2022/01/18 01:07:22;;;;;;;14.48;10.02;;;6.40;99.90;;;;;;5042514;28;20018;-86
2022/01/18 01:09:48;;;;;;;15.23;10.25;;;6.30;99.90;;;;;;5040916;28;20057;-87
2022/01/18 01:12:17;;;;;;;15.52;9.85;;;6.30;99.90;;;;;;5039152;28;20107;-86
2022/01/18 01:14:44;;;;;;;14.88;10.23;;;6.30;99.90;;;;;;5041534;28;20214;-86
2022/01/18 01:42:02;;;;;;;15.45;9.75;;;6.20;99.90;;;;;;5020045;28;20018;-86
2022/01/18 01:44:40;;;;;;;15.88;9.73;;;6.20;99.90;;;;;;5036737;28;20052;-86
2022/01/18 01:47:07;;;;;;;15.38;9.32;;;6.20;99.90;;;;;;5041819;28;20324;-86
2022/01/18 01:49:33;;;;;;;15.77;10.30;;;6.20;99.90;;;;;;5042287;28;20085;-87
2022/01/18 01:52:03;;;;;;;15.43;9.48;;;6.20;99.90;;;;;;5042133;28;20067;-86
2022/01/18 01:54:28;;;;;;;15.18;9.40;;;6.20;99.90;;;;;;5042222;28;20021;-86
2022/01/18 01:56:54;;;;;;;14.23;9.75;;;6.20;99.90;;;;;;5041612;28;20033;-86
2022/01/18 01:59:20;;;;;;;15.27;9.10;;;6.20;99.90;;;;;;5041752;28;20056;-85
2022/01/18 02:01:48;;;;;;;12.82;8.73;;;6.30;99.90;;;;;;5039367;28;20486;-86
2022/01/18 02:04:16;;;;;;;15.60;8.77;;;6.30;99.90;;;;;;5041512;28;20027;-86
2022/01/18 02:06:42;;;;;;;11.98;8.40;;;6.30;99.90;;;;;;5041423;28;20009;-89
2022/01/18 02:09:08;;;;;;;12.93;8.93;;;6.40;99.90;;;;;;5041476;28;20218;-86
2022/01/18 02:11:34;;;;;;;13.52;9.02;;;6.40;99.90;;;;;;5041717;28;20009;-86
2022/01/18 02:14:01;;;;;;;12.10;8.75;;;6.50;99.90;;;;;;5034507;28;20086;-86
2022/01/18 02:22:00;;;;;;;11.88;8.07;;;6.40;99.90;;;;;;5038839;28;20083;-86
2022/01/18 02:24:26;;;;;;;10.48;7.95;;;6.40;99.90;;;;;;5041693;28;20089;-86
2022/01/18 02:26:52;;;;;;;11.82;7.80;;;6.40;99.90;;;;;;5041988;28;20013;-86
2022/01/18 02:29:18;;;;;;;10.40;7.18;;;6.30;99.90;;;;;;5040572;28;20029;-86
2022/01/18 02:31:44;;;;;;;8.20;6.32;;;6.20;99.90;;;;;;5041713;28;20025;-86
2022/01/18 02:34:14;;;;;;;10.77;5.95;;;6.20;99.90;;;;;;5040933;28;20218;-86
2022/01/18 02:36:40;;;;;;;7.57;5.68;;;6.20;99.90;;;;;;5041153;28;20314;-86
2022/01/18 02:39:06;;;;;;;7.85;5.45;;;6.20;99.90;;;;;;5040318;28;20409;-87
2022/01/18 02:41:32;;;;;;;7.43;5.55;;;6.20;99.90;;;;;;5041512;28;20014;-86
2022/01/18 02:44:12;;;;;;;7.90;5.47;;;6.20;99.90;;;;;;5041203;28;20187;-87
2022/01/18 02:46:39;;;;;;;8.40;5.45;;;6.20;99.90;;;;;;5039842;28;20044;-86
2022/01/18 02:49:05;;;;;;;9.23;5.90;;;6.10;99.90;;;;;;5040842;28;20367;-86
2022/01/18 02:51:31;;;;;;;8.20;5.38;;;6.00;99.90;;;;;;5039205;28;20034;-86
2022/01/18 02:54:04;;;;;;;8.35;6.20;;;5.90;99.90;;;;;;5040927;28;20022;-86
2022/01/18 02:56:34;;;;;;;9.70;6.07;;;5.80;99.90;;;;;;5043306;28;20183;-86
2022/01/18 03:04:32;;;;;;;8.85;5.78;;;5.60;99.90;;;;;;5044160;28;20139;-86
2022/01/18 03:06:58;;;;;;;9.98;6.03;;;5.60;99.90;;;;;;5045070;28;20036;-86
2022/01/18 03:09:24;;;;;;;11.95;6.20;;;5.50;99.90;;;;;;5043867;28;20314;-86
2022/01/18 03:11:49;;;;;;;10.23;6.60;;;5.50;99.90;;;;;;5044926;28;20313;-86
2022/01/18 03:14:15;;;;;;;10.68;6.65;;;5.50;99.90;;;;;;5044700;28;20379;-86
2022/01/18 03:16:41;;;;;;;9.82;6.90;;;5.50;99.90;;;;;;5043004;28;20071;-86
2022/01/18 03:19:06;;;;;;;12.80;8.07;;;5.40;99.90;;;;;;5039355;28;20337;-86
2022/01/18 03:21:32;;;;;;;11.20;7.88;;;5.40;99.90;;;;;;5044369;28;20048;-86
2022/01/18 03:29:44;;;;;;;10.13;6.65;;;5.30;99.90;;;;;;5042648;28;20078;-86
2022/01/18 03:32:10;;;;;;;10.70;7.20;;;5.30;99.90;;;;;;5044349;28;20017;-86
2022/01/18 03:34:35;;;;;;;10.40;7.05;;;5.20;99.90;;;;;;5043744;28;20056;-86
2022/01/18 03:37:01;;;;;;;10.25;7.40;;;5.30;99.90;;;;;;5042937;28;20046;-86
2022/01/18 03:39:27;;;;;;;8.68;6.00;;;5.30;99.90;;;;;;5043283;28;20099;-86
2022/01/18 03:42:01;;;;;;;10.25;5.97;;;5.30;99.90;;;;;;5057688;28;20021;-86
2022/01/18 03:44:27;;;;;;;8.95;5.72;;;5.40;99.90;;;;;;5058373;28;20036;-86
2022/01/18 03:46:53;;;;;;;8.95;6.25;;;5.30;99.90;;;;;;5043194;28;20021;-86
2022/01/18 03:49:23;;;;;;;9.50;6.28;;;5.30;99.90;;;;;;5038898;28;20034;-86
2022/01/18 03:51:48;;;;;;;9.35;6.60;;;5.20;99.90;;;;;;5042162;28;20017;-86
2022/01/18 03:54:20;;;;;;;7.07;5.40;;;5.20;99.90;;;;;;5043071;28;20075;-86
2022/01/18 03:56:46;;;;;;;10.00;5.90;;;5.10;99.90;;;;;;5042455;28;20026;-85
2022/01/18 03:59:12;;;;;;;9.32;6.65;;;5.00;99.90;;;;;;5042608;28;20258;-85
2022/01/18 04:01:38;;;;;;;10.50;6.43;;;5.00;99.90;;;;;;5057398;28;20017;-84
2022/01/18 04:04:03;;;;;;;9.40;6.25;;;4.90;99.90;;;;;;5042551;28;20333;-85
2022/01/18 04:06:29;;;;;;;11.88;6.75;;;4.90;99.90;;;;;;5041623;28;20021;-85
2022/01/18 04:08:55;;;;;;;8.77;6.60;;;4.80;99.90;;;;;;5042846;28;20210;-85
2022/01/18 04:11:20;;;;;;;9.07;6.30;;;4.90;99.90;;;;;;5042602;28;20305;-84
2022/01/18 04:13:46;;;;;;;9.52;6.20;;;4.80;99.90;;;;;;5040466;28;20025;-85
2022/01/18 04:16:12;;;;;;;10.95;6.40;;;4.80;99.90;;;;;;5042044;28;20038;-85
2022/01/18 04:29:11;;;;;;;8.93;6.20;;;4.60;99.90;;;;;;5040635;28;20029;-84
2022/01/18 04:31:37;;;;;;;12.27;6.53;;;4.60;99.90;;;;;;5042530;28;20096;-85
2022/01/18 04:34:04;;;;;;;9.70;6.57;;;4.50;99.90;;;;;;4996481;28;1291330;-84
2022/01/18 04:36:29;;;;;;;9.82;6.45;;;4.50;99.90;;;;;;5041561;28;20105;-85
2022/01/18 04:38:56;;;;;;;9.80;5.90;;;4.50;99.90;;;;;;5043263;28;20033;-84
2022/01/18 04:41:27;;;;;;;9.52;6.43;;;4.50;99.90;;;;;;5042487;28;20055;-84
2022/01/18 04:44:15;;;;;;;9.68;6.07;;;4.50;99.90;;;;;;5041215;28;20105;-84
2022/01/18 04:49:24;;;;;;;9.73;6.30;;;4.40;99.90;;;;;;5043157;28;20371;-85
2022/01/18 04:51:49;;;;;;;8.63;5.63;;;4.40;99.90;;;;;;5043031;28;20021;-85
2022/01/18 04:54:16;;;;;;;12.50;6.53;;;4.40;99.90;;;;;;5039201;28;20216;-84
2022/01/18 04:59:10;;;;;;;10.02;5.90;;;4.30;99.90;;;;;;5042792;28;20040;-85
2022/01/18 05:01:38;;;;;;;10.38;6.22;;;4.40;99.90;;;;;;5042371;28;20072;-85
2022/01/18 05:04:04;;;;;;;10.85;6.32;;;4.30;99.90;;;;;;5042470;28;20017;-84
2022/01/18 05:06:30;;;;;;;8.07;5.78;;;4.40;99.90;;;;;;5042116;28;20021;-85
2022/01/18 05:08:57;;;;;;;11.35;6.25;;;4.30;99.90;;;;;;5042960;28;20029;-84
2022/01/18 05:11:25;;;;;;;11.00;6.18;;;4.30;99.90;;;;;;5043384;28;20225;-85
2022/01/18 05:14:12;;;;;;;10.48;6.38;;;4.20;99.90;;;;;;5041245;28;20217;-85
2022/01/18 05:22:57;;;;;;;9.13;5.82;;;4.20;99.90;;;;;;5041922;28;20018;-85
2022/01/18 05:24:30;;;;;;;9.75;6.50;;;4.20;99.90;;;;;;5042234;28;20021;-85
2022/01/18 05:26:56;;;;;;;10.27;6.13;;;4.20;99.90;;;;;;5042751;28;20048;-85
2022/01/18 05:29:23;;;;;;;9.20;6.72;;;4.20;99.90;;;;;;5040883;28;20076;-84
2022/01/18 05:31:49;;;;;;;11.80;6.22;;;4.20;99.90;;;;;;5042340;28;20092;-85
2022/01/18 05:34:15;;;;;;;9.93;6.40;;;4.10;99.90;;;;;;5042169;28;20099;-85
2022/01/18 05:36:41;;;;;;;11.38;6.40;;;4.00;99.90;;;;;;5042206;28;20029;-85
2022/01/18 05:39:10;;;;;;;11.35;7.07;;;4.00;99.90;;;;;;5042340;28;20079;-85
2022/01/18 05:41:37;;;;;;;11.00;7.03;;;3.90;99.90;;;;;;5041756;28;20348;-85
2022/01/18 05:44:04;;;;;;;15.05;7.53;;;3.90;99.90;;;;;;5041673;28;20028;-85
2022/01/18 05:46:29;;;;;;;12.27;7.78;;;3.80;99.90;;;;;;5041428;28;20028;-85
2022/01/18 05:48:55;;;;;;;16.27;9.05;;;3.70;99.90;;;;;;5041810;28;20021;-85
2022/01/18 05:51:21;;;;;;;15.73;8.70;;;3.70;99.90;;;;;;5041750;28;20053;-85
2022/01/18 05:53:46;;;;;;;12.80;7.40;;;3.70;99.90;;;;;;5041109;28;20027;-84
2022/01/18 05:56:12;;;;;;;24.60;10.15;;;3.70;99.90;;;;;;5041510;28;20021;-85
2022/01/18 05:58:42;;;;;;;16.00;8.10;;;3.70;99.90;;;;;;5040629;28;20034;-85
2022/01/18 06:01:08;;;;;;;13.95;8.70;;;3.70;99.90;;;;;;5041189;28;20021;-85
2022/01/18 06:03:49;;;;;;;14.73;8.88;;;3.70;99.90;;;;;;5042175;28;20025;-85
2022/01/18 06:08:58;;;;;;;12.82;8.60;;;3.60;99.90;;;;;;5041827;28;20214;-84
2022/01/18 06:11:24;;;;;;;12.65;8.35;;;3.60;99.90;;;;;;5041599;28;20021;-85
2022/01/18 06:13:49;;;;;;;14.05;8.75;;;3.60;99.90;;;;;;5041681;28;20084;-85
2022/01/18 06:16:15;;;;;;;12.98;8.40;;;3.70;99.90;;;;;;5042051;28;20314;-85
2022/01/18 06:18:41;;;;;;;11.68;8.75;;;3.60;99.90;;;;;;5043509;28;20034;-85
2022/01/18 06:21:06;;;;;;;13.07;8.38;;;3.60;99.90;;;;;;5045092;28;20052;-84
2022/01/18 06:23:32;;;;;;;13.38;8.85;;;3.60;99.90;;;;;;5029453;28;20367;-85
2022/01/18 06:26:02;;;;;;;12.85;7.82;;;3.60;99.90;;;;;;5029798;28;20021;-85
2022/01/18 06:28:29;;;;;;;11.82;8.27;;;3.60;99.90;;;;;;5029577;28;20056;-85
2022/01/18 06:30:54;;;;;;;13.50;8.55;;;3.70;99.90;;;;;;5029779;28;20523;-85
2022/01/18 06:33:20;;;;;;;12.02;8.00;;;3.80;99.90;;;;;;5029530;28;20025;-85
2022/01/18 06:35:46;;;;;;;11.10;8.00;;;3.80;99.90;;;;;;5028598;28;20548;-85
2022/01/18 06:38:12;;;;;;;12.98;8.25;;;3.80;99.90;;;;;;5045098;28;20046;-85
2022/01/18 06:40:38;;;;;;;12.98;8.63;;;3.80;99.90;;;;;;5030339;28;20021;-85
2022/01/18 06:43:05;;;;;;;15.57;8.45;;;3.80;99.90;;;;;;5029976;28;20024;-84
2022/01/18 06:45:31;;;;;;;14.02;8.90;;;3.70;99.90;;;;;;5030253;28;20482;-85
2022/01/18 06:47:56;;;;;;;18.27;9.82;;;3.60;99.90;;;;;;5030133;28;20026;-85
2022/01/18 06:50:22;;;;;;;17.40;10.30;;;3.60;99.90;;;;;;5029984;28;20502;-85
2022/01/18 06:52:47;;;;;;;16.08;8.77;;;3.60;99.90;;;;;;5028371;28;20124;-85
2022/01/18 06:55:13;;;;;;;14.18;8.60;;;3.50;99.90;;;;;;5029962;28;20027;-85
2022/01/18 06:57:39;;;;;;;14.63;8.85;;;3.60;99.90;;;;;;5045347;28;20132;-84
2022/01/18 07:00:06;;;;;;;15.43;9.82;;;3.50;99.90;;;;;;5030138;28;20014;-85
2022/01/18 07:02:32;;;;;;;13.88;9.27;;;3.50;99.90;;;;;;5030088;28;20060;-85
2022/01/18 07:04:58;;;;;;;15.93;9.68;;;3.50;99.90;;;;;;5030024;28;20057;-84
2022/01/18 07:07:24;;;;;;;15.20;10.20;;;3.50;99.90;;;;;;5029505;28;20028;-85
2022/01/18 07:09:49;;;;;;;15.15;9.73;;;3.50;99.90;;;;;;5029909;28;20478;-85
2022/01/18 07:12:16;;;;;;;17.25;10.15;;;3.40;99.90;;;;;;5029750;28;20083;-85
2022/01/18 07:14:42;;;;;;;20.15;11.27;;;3.50;99.90;;;;;;5029969;28;20036;-84
2022/01/18 07:17:08;;;;;;;17.65;11.75;;;3.40;99.90;;;;;;5029456;28;20072;-86
2022/01/18 07:19:35;;;;;;;19.00;11.40;;;3.40;99.90;;;;;;5029956;28;20445;-86
2022/01/18 07:22:01;;;;;;;23.10;12.95;;;3.40;99.90;;;;;;5029657;28;20021;-86
2022/01/18 07:24:44;;;;;;;22.45;13.52;;;3.40;99.90;;;;;;5028426;28;20112;-86
2022/01/18 07:27:13;;;;;;;18.70;12.30;;;3.30;99.90;;;;;;5028284;28;20029;-86
2022/01/18 07:29:43;;;;;;;26.75;13.18;;;3.30;99.90;;;;;;5029523;28;20025;-86
2022/01/18 07:32:10;;;;;;;19.73;12.55;;;3.30;99.90;;;;;;5029549;28;20033;-86
2022/01/18 07:34:40;;;;;;;22.42;12.05;;;3.40;99.90;;;;;;5027650;28;20041;-86
2022/01/18 07:37:07;;;;;;;20.38;12.23;;;3.40;99.90;;;;;;5027522;28;20156;-86
2022/01/18 07:39:33;;;;;;;23.27;12.90;;;3.30;99.90;;;;;;5028297;28;20022;-86
2022/01/18 07:41:59;;;;;;;20.65;13.32;;;3.40;99.90;;;;;;5028812;28;20037;-86
2022/01/18 07:44:25;;;;;;;23.50;12.63;;;3.30;99.90;;;;;;5032278;28;20280;-86
2022/01/18 07:46:51;;;;;;;22.25;13.40;;;3.20;99.90;;;;;;5032518;28;20284;-86
2022/01/18 07:49:16;;;;;;;24.65;13.52;;;3.20;99.90;;;;;;5031486;28;20025;-86
2022/01/18 07:51:42;;;;;;;24.75;14.10;;;3.30;99.90;;;;;;5032682;28;20029;-86
2022/01/18 07:54:08;;;;;;;20.88;12.73;;;3.30;99.90;;;;;;5033141;28;20032;-86
2022/01/18 07:56:34;;;;;;;25.33;14.10;;;3.30;99.90;;;;;;5031882;28;20021;-86
2022/01/18 07:59:00;;;;;;;25.75;12.88;;;3.40;99.90;;;;;;5031707;28;20034;-86
2022/01/18 08:01:26;;;;;;;23.13;14.05;;;3.40;99.90;;;;;;5031945;28;20036;-86
2022/01/18 08:03:52;;;;;;;29.90;14.52;;;3.40;99.90;;;;;;5033563;28;20036;-85
2022/01/18 08:06:17;;;;;;;23.30;14.40;;;3.50;99.90;;;;;;5031337;28;20029;-86
2022/01/18 08:08:43;;;;;;;23.33;14.45;;;3.60;99.90;;;;;;5031458;28;20033;-86
2022/01/18 08:11:09;;;;;;;23.50;13.35;;;3.60;99.90;;;;;;5033155;28;20030;-86
2022/01/18 08:13:40;;;;;;;29.40;15.88;;;3.70;99.90;;;;;;5031414;28;20482;-85
2022/01/18 08:16:33;;;;;;;25.35;14.98;;;3.80;99.90;;;;;;5032741;28;20025;-86
2022/01/18 08:18:58;;;;;;;22.85;14.40;;;3.80;99.90;;;;;;5032544;28;20041;-86
2022/01/18 08:21:25;;;;;;;20.67;14.23;;;3.90;99.90;;;;;;5031080;28;20029;-86
2022/01/18 08:23:51;;;;;;;24.05;14.77;;;4.00;99.90;;;;;;5031432;28;20034;-86
2022/01/18 08:26:18;;;;;;;21.90;14.93;;;4.00;99.90;;;;;;5032700;28;20017;-86
2022/01/18 08:28:44;;;;;;;23.48;13.40;;;4.10;99.90;;;;;;5031098;28;20056;-86
2022/01/18 08:31:10;;;;;;;23.05;13.88;;;4.10;99.90;;;;;;5032592;28;20026;-86
2022/01/18 08:33:35;;;;;;;21.83;13.82;;;4.10;99.90;;;;;;5032424;28;20056;-86
2022/01/18 08:36:04;;;;;;;24.08;14.73;;;4.20;99.90;;;;;;5030841;28;20547;-86
2022/01/18 08:38:30;;;;;;;20.27;13.48;;;4.20;99.90;;;;;;5032223;28;20110;-86
2022/01/18 08:40:58;;;;;;;26.27;13.00;;;4.20;99.90;;;;;;5031237;28;20040;-87
2022/01/18 08:43:24;;;;;;;22.70;13.95;;;4.20;99.90;;;;;;5032255;28;20030;-87
2022/01/18 08:45:50;;;;;;;23.20;15.18;;;4.30;99.90;;;;;;5032437;28;20052;-86
2022/01/18 08:48:16;;;;;;;22.20;14.02;;;4.30;99.90;;;;;;5030808;28;20489;-87
2022/01/18 08:50:42;;;;;;;25.75;14.10;;;4.40;99.90;;;;;;5032040;28;20025;-87
2022/01/18 08:53:07;;;;;;;27.58;14.90;;;4.50;99.90;;;;;;5029122;28;20033;-86
2022/01/18 08:55:34;;;;;;;24.98;14.60;;;4.50;99.90;;;;;;5030566;28;20364;-86
2022/01/18 08:58:04;;;;;;;23.33;14.65;;;4.60;99.90;;;;;;5030911;28;20060;-86
2022/01/18 09:00:30;;;;;;;21.55;13.85;;;4.60;99.90;;;;;;5030830;28;20026;-86
2022/01/18 09:02:56;;;;;;;21.67;13.55;;;4.70;99.90;;;;;;5031958;28;20084;-87
2022/01/18 09:05:23;;;;;;;22.35;14.57;;;4.70;99.90;;;;;;5030509;28;20037;-86
2022/01/18 09:07:51;;;;;;;23.38;14.23;;;4.80;99.90;;;;;;5030146;28;20022;-86
2022/01/18 09:10:17;;;;;;;23.20;14.55;;;4.80;99.90;;;;;;5030454;28;20033;-86
2022/01/18 09:12:42;;;;;;;23.00;14.35;;;4.90;99.90;;;;;;5031510;28;20044;-86
2022/01/18 09:15:11;;;;;;;38.22;14.85;;;4.90;99.90;;;;;;5031616;28;20060;-86
2022/01/18 09:17:39;;;;;;;33.63;15.82;;;5.00;99.90;;;;;;5031522;28;20490;-86
2022/01/18 09:20:07;;;;;;;25.77;14.30;;;5.00;99.90;;;;;;5030191;28;20477;-86
2022/01/18 09:22:39;;;;;;;22.45;14.07;;;5.10;99.90;;;;;;5031178;28;20370;-86
2022/01/18 09:25:08;;;;;;;22.70;13.85;;;5.20;99.90;;;;;;5031388;28;20117;-86
2022/01/18 09:27:34;;;;;;;24.30;14.52;;;5.20;99.90;;;;;;5031643;28;20098;-87
2022/01/18 09:30:00;;;;;;;24.33;15.25;;;5.30;99.90;;;;;;5031718;28;20100;-86
2022/01/18 09:32:26;;;;;;;30.15;19.25;;;5.30;99.90;;;;;;5031013;28;20470;-86
2022/01/18 09:34:52;;;;;;;27.88;16.05;;;5.40;99.90;;;;;;5031136;28;20043;-86
2022/01/18 09:37:19;;;;;;;30.73;19.27;;;5.50;99.90;;;;;;5030741;28;20513;-86
2022/01/18 09:39:45;;;;;;;25.50;17.25;;;5.60;99.90;;;;;;5029854;28;20029;-87
2022/01/18 09:42:11;;;;;;;26.23;16.73;;;5.70;99.90;;;;;;5029873;28;20528;-86
2022/01/18 09:44:37;;;;;;;24.95;16.45;;;5.70;99.90;;;;;;5031061;28;20029;-86
2022/01/18 09:47:05;;;;;;;25.45;15.30;;;5.80;99.90;;;;;;5031071;28;20078;-86
2022/01/18 09:49:33;;;;;;;22.98;14.15;;;5.70;99.90;;;;;;5030992;28;20048;-86
2022/01/18 09:51:59;;;;;;;23.70;14.52;;;5.70;99.90;;;;;;5029218;28;20028;-86
2022/01/18 09:54:25;;;;;;;23.00;15.20;;;5.70;99.90;;;;;;5029460;28;20140;-86
2022/01/18 09:56:50;;;;;;;24.27;15.25;;;5.80;99.90;;;;;;5029410;28;20112;-86
2022/01/18 09:59:16;;;;;;;26.00;14.63;;;5.90;99.90;;;;;;5029500;28;20102;-86
2022/01/18 10:01:42;;;;;;;24.08;13.85;;;6.00;99.90;;;;;;5030818;28;20527;-86
2022/01/18 10:04:31;;;;;;;22.05;13.00;;;6.00;99.90;;;;;;5029228;28;20025;-86
2022/01/18 10:06:57;;;;;;;22.70;13.32;;;6.10;99.90;;;;;;5029176;28;20072;-87
2022/01/18 10:09:25;;;;;;;22.65;13.20;;;6.30;99.90;;;;;;5029371;28;20386;-86
2022/01/18 10:12:07;;;;;;;22.10;13.13;;;6.30;99.90;;;;;;5030569;28;20071;-86
2022/01/18 10:14:34;;;;;;;19.02;13.13;;;6.30;99.90;;;;;;5030696;28;20029;-87
2022/01/18 10:17:00;;;;;;;20.00;13.43;;;6.40;99.90;;;;;;5030251;28;20371;-86
2022/01/18 10:19:50;;;;;;;24.08;14.07;;;6.50;99.90;;;;;;5029312;28;20044;-86
2022/01/18 10:22:22;;;;;;;20.67;12.20;;;6.60;99.90;;;;;;5028899;28;20205;-86
2022/01/18 10:24:48;;;;;;;20.15;12.80;;;6.60;99.90;;;;;;5030832;28;20112;-86
2022/01/18 10:27:14;;;;;;;26.23;13.20;;;6.70;99.90;;;;;;5029046;28;20172;-86
2022/01/18 10:29:46;;;;;;;18.85;11.85;;;6.70;99.90;;;;;;5029361;28;20674;-87
2022/01/18 10:32:16;;;;;;;18.90;12.43;;;6.80;99.90;;;;;;5030523;28;20051;-87
2022/01/18 10:37:22;;;;;;;19.45;11.57;;;6.90;99.90;;;;;;5029623;28;20026;-86
2022/01/18 10:39:48;;;;;;;20.85;11.68;;;6.90;99.90;;;;;;5030338;28;20073;-87
2022/01/18 10:42:21;;;;;;;16.33;10.50;;;7.00;99.90;;;;;;5029105;28;20516;-86
2022/01/18 10:44:48;;;;;;;18.80;11.15;;;7.20;99.90;;;;;;5030370;28;20026;-86
2022/01/18 10:47:17;;;;;;;17.50;10.45;;;7.30;99.90;;;;;;5028876;28;20108;-86
2022/01/18 10:49:47;;;;;;;19.65;12.65;;;7.40;99.90;;;;;;5030287;28;20542;-86
2022/01/18 10:52:20;;;;;;;19.98;12.32;;;7.70;99.90;;;;;;5028457;28;20025;-86
2022/01/18 10:54:55;;;;;;;19.90;11.70;;;7.60;99.90;;;;;;5030119;28;20022;-86
2022/01/18 10:57:41;;;;;;;18.10;10.75;;;7.70;99.90;;;;;;5028766;28;20064;-86
2022/01/18 11:00:20;;;;;;;16.92;10.35;;;7.70;99.90;;;;;;5030126;28;20024;-86
2022/01/18 11:02:51;;;;;;;14.00;8.95;;;7.60;99.90;;;;;;5030158;28;20494;-86
2022/01/18 11:05:32;;;;;;;15.93;9.02;;;7.60;99.90;;;;;;5030307;28;20025;-86
2022/01/18 11:08:04;;;;;;;13.77;9.35;;;7.60;99.90;;;;;;5029260;28;20069;-86
2022/01/18 11:10:41;;;;;;;12.07;8.60;;;7.60;99.90;;;;;;5028683;28;20138;-87
2022/01/18 11:13:11;;;;;;;14.82;8.95;;;7.70;99.90;;;;;;5030151;28;20036;-86
2022/01/18 11:15:43;;;;;;;11.98;8.25;;;7.80;99.90;;;;;;5029717;28;20075;-86
2022/01/18 11:18:29;;;;;;;10.95;7.28;;;8.00;99.90;;;;;;5030266;28;20037;-86
2022/01/18 11:20:56;;;;;;;11.75;8.00;;;8.10;99.90;;;;;;5033500;28;20104;-87
2022/01/18 11:23:23;;;;;;;13.32;7.57;;;8.00;99.90;;;;;;5032482;28;20438;-86
2022/01/18 11:25:51;;;;;;;10.10;7.40;;;7.90;99.90;;;;;;5033797;28;20029;-86
2022/01/18 11:28:17;;;;;;;11.00;7.60;;;7.80;99.90;;;;;;5033845;28;20025;-86
2022/01/18 11:30:45;;;;;;;11.43;7.38;;;7.80;99.90;;;;;;5032633;28;20091;-86
2022/01/18 11:33:16;;;;;;;10.07;6.82;;;7.80;99.90;;;;;;5033793;28;20025;-85
2022/01/18 11:36:22;;;;;;;28.95;13.13;;;7.90;99.90;;;;;;5033144;28;20041;-85
2022/01/18 11:38:56;;;;;;;13.65;8.18;;;7.90;99.90;;;;;;5033473;28;20088;-85
2022/01/18 11:41:31;;;;;;;14.48;8.60;;;8.10;99.90;;;;;;5033484;28;20120;-85
2022/01/18 11:43:59;;;;;;;14.55;7.53;;;8.10;99.90;;;;;;5032054;28;20509;-85
2022/01/18 11:46:34;;;;;;;11.40;7.53;;;8.20;99.90;;;;;;5033439;28;20102;-85
2022/01/18 11:49:22;;;;;;;10.77;7.50;;;8.10;99.90;;;;;;5032104;28;20029;-86
2022/01/18 11:51:50;;;;;;;9.82;7.20;;;8.20;99.90;;;;;;5032751;28;20022;-86
2022/01/18 11:54:35;;;;;;;9.63;6.78;;;8.30;99.90;;;;;;5033078;28;20490;-86
2022/01/18 11:57:20;;;;;;;9.93;7.18;;;8.40;99.90;;;;;;5032607;28;20446;-86
2022/01/18 11:59:47;;;;;;;12.20;6.65;;;8.40;99.90;;;;;;5032998;28;20044;-86
2022/01/18 12:02:37;;;;;;;10.52;6.80;;;8.50;99.90;;;;;;5033063;28;20014;-85
2022/01/18 12:05:19;;;;;;;10.77;7.78;;;8.50;99.90;;;;;;5033104;28;20136;-86
2022/01/18 12:07:47;;;;;;;11.05;7.47;;;8.60;99.90;;;;;;5031299;28;20417;-86
2022/01/18 12:10:32;;;;;;;11.40;7.30;;;8.60;99.90;;;;;;5031474;28;20129;-86
2022/01/18 12:13:02;;;;;;;14.52;7.13;;;8.50;99.90;;;;;;5031465;28;20021;-86
2022/01/18 12:15:36;;;;;;;9.73;7.10;;;8.50;99.90;;;;;;5033042;28;20029;-86
2022/01/18 12:18:04;;;;;;;9.55;6.68;;;8.60;99.90;;;;;;5032532;28;20116;-86
2022/01/18 12:20:46;;;;;;;16.10;7.03;;;8.40;99.90;;;;;;5032805;28;20598;-86
2022/01/18 12:23:21;;;;;;;9.60;7.00;;;8.40;99.90;;;;;;5032358;28;20034;-86
2022/01/18 12:26:30;;;;;;;10.50;7.57;;;8.40;99.90;;;;;;5031345;28;20029;-86
2022/01/18 12:30:01;;;;;;;9.73;6.07;;;8.30;99.90;;;;;;5021865;28;20044;-86
2022/01/18 12:37:24;;;;;;;9.77;6.13;;;8.30;99.90;;;;;;5032084;28;20371;-86
2022/01/18 12:39:50;;;;;;;8.55;5.45;;;8.30;99.90;;;;;;5032156;28;20091;-86
2022/01/18 12:45:24;;;;;;;11.43;6.00;;;8.60;99.90;;;;;;5031879;28;20159;-86
2022/01/18 12:47:59;;;;;;;11.23;7.63;;;8.70;99.90;;;;;;5031019;28;20037;-86
2022/01/18 12:50:25;;;;;;;10.57;7.43;;;8.90;99.90;;;;;;5031139;28;20505;-86
2022/01/18 12:53:06;;;;;;;10.48;7.30;;;8.80;99.90;;;;;;5031813;28;20109;-86
2022/01/18 12:55:45;;;;;;;9.23;6.35;;;8.80;99.90;;;;;;5030712;28;20057;-86
2022/01/18 12:58:16;;;;;;;9.43;5.95;;;8.70;99.90;;;;;;5031939;28;20083;-86
2022/01/18 13:00:47;;;;;;;9.25;6.38;;;8.70;99.90;;;;;;5031986;28;20037;-86
2022/01/18 13:03:36;;;;;;;11.07;6.20;;;8.70;99.90;;;;;;5031944;28;20559;-86
2022/01/18 13:06:06;;;;;;;10.48;6.07;;;8.60;99.90;;;;;;5030187;28;20021;-86
2022/01/18 13:08:55;;;;;;;11.02;6.85;;;8.60;99.90;;;;;;5031969;28;20033;-86
2022/01/18 13:11:29;;;;;;;9.93;6.45;;;8.70;99.90;;;;;;5031788;28;20021;-86
2022/01/18 13:14:00;;;;;;;;;;;8.60;99.90;;;;;;5032249;28;20083;-86
2022/01/18 13:27:36;;;;;;;11.20;6.60;;;8.30;99.90;;;;;;5031608;28;20033;-86
2022/01/18 13:30:10;;;;;;;14.10;8.15;;;8.20;99.90;;;;;;5030053;28;20022;-87
2022/01/18 13:32:37;;;;;;;10.20;6.20;;;8.40;99.90;;;;;;5031457;28;20033;-86
2022/01/18 13:35:05;;;;;;;8.43;6.32;;;8.30;99.90;;;;;;5031012;28;20283;-86
2022/01/18 13:37:33;;;;;;;12.60;6.93;;;8.40;99.90;;;;;;5030712;28;20034;-86
2022/01/18 13:40:06;;;;;;;9.65;6.40;;;8.50;99.90;;;;;;5030441;28;20064;-85
2022/01/18 13:42:38;;;;;;;9.55;6.30;;;8.50;99.90;;;;;;5031333;28;20035;-86
2022/01/18 13:45:16;;;;;;;9.57;6.25;;;8.40;99.90;;;;;;5031217;28;20047;-86
2022/01/18 13:47:51;;;;;;;10.32;6.72;;;8.40;99.90;;;;;;5029800;28;20486;-85
2022/01/18 13:50:31;;;;;;;12.68;7.22;;;8.50;99.90;;;;;;5031003;28;20029;-87
2022/01/18 13:53:03;;;;;;;34.03;13.10;;;8.50;99.90;;;;;;5030622;28;20029;-86
2022/01/18 13:55:30;;;;;;;16.73;8.70;;;8.70;99.90;;;;;;5030966;28;20494;-86
2022/01/18 13:58:00;;;;;;;27.67;14.80;;;8.80;99.90;;;;;;5030711;28;20041;-86
2022/01/18 14:00:27;;;;;;;9.93;5.63;;;8.90;99.90;;;;;;5029580;28;20496;-86
2022/01/18 14:02:54;;;;;;;10.32;6.43;;;9.00;99.90;;;;;;5030840;28;20543;-86
2022/01/18 14:05:21;;;;;;;9.32;6.10;;;9.00;99.90;;;;;;5030852;28;20064;-86
2022/01/18 14:08:02;;;;;;;9.65;6.28;;;9.00;99.90;;;;;;5030910;28;20020;-86
2022/01/18 14:10:28;;;;;;;11.52;6.60;;;9.00;99.90;;;;;;5030727;28;20029;-86
2022/01/18 14:12:55;;;;;;;9.70;6.13;;;9.00;99.90;;;;;;5029329;28;20025;-85
2022/01/18 14:15:43;;;;;;;11.45;6.65;;;9.00;99.90;;;;;;5029407;28;20029;-86
2022/01/18 14:18:10;;;;;;;9.98;6.45;;;8.90;99.90;;;;;;5030559;28;20042;-86
2022/01/18 14:20:36;;;;;;;8.25;5.45;;;8.80;99.90;;;;;;5029178;28;20442;-86
2022/01/18 14:23:03;;;;;;;10.63;5.85;;;8.70;99.90;;;;;;5028914;28;20030;-86
2022/01/18 14:25:31;;;;;;;8.90;5.63;;;8.70;99.90;;;;;;5030636;28;20021;-85
2022/01/18 14:28:11;;;;;;;10.50;5.45;;;8.60;99.90;;;;;;5030436;28;20029;-86
2022/01/18 14:30:42;;;;;;;9.35;5.55;;;8.50;99.90;;;;;;5030737;28;20037;-86
2022/01/18 14:33:09;;;;;;;9.95;6.20;;;8.50;99.90;;;;;;5030373;28;20014;-85